Time;durP1;ratioP1;P1;durP2;ratioP2;P2;SDS_P1;SDS_P2;PMS_P1;PMS_P2;Temp;Humidity;BMP_temperature;BMP_pressure;BME280_temperature;BME280_humidity;BME280_pressure;Samples;Min_cycle;Max_cycle;Signal;HPM_P1;HPM_P2
2023/05/07 05:24:15;;;;;;;8.95;8.05;;;;;;;10.76;74.95;95193.81;5092555;27;20544;-69
2023/05/07 05:26:51;;;;;;;8.77;8.07;;;;;;;10.82;75.36;95199.84;5091911;28;20558;-68
2023/05/07 05:29:18;;;;;;;9.07;8.30;;;;;;;10.85;74.69;95191.69;5092746;28;20190;-68
2023/05/07 05:31:49;;;;;;;8.63;7.78;;;;;;;10.92;74.62;95198.56;5091584;28;20208;-72
2023/05/07 05:34:19;;;;;;;9.10;8.20;;;;;;;10.97;75.30;95199.13;5092701;28;20253;-73
2023/05/07 05:36:48;;;;;;;9.18;8.25;;;;;;;11.04;75.17;95202.06;5092260;28;20700;-73
2023/05/07 05:39:24;;;;;;;9.55;8.68;;;;;;;11.09;74.83;95199.06;5091389;28;20215;-72
2023/05/07 05:41:51;;;;;;;8.88;8.07;;;;;;;11.18;75.04;95203.59;5092344;28;20180;-71
2023/05/07 05:44:23;;;;;;;8.63;7.93;;;;;;;11.22;74.92;95202.56;5125139;28;20204;-71
2023/05/07 05:46:54;;;;;;;8.98;8.18;;;;;;;11.28;74.14;95205.84;5092028;28;20204;-72
2023/05/07 05:49:31;;;;;;;9.30;8.50;;;;;;;11.30;73.54;95201.59;5075609;28;20204;-72
2023/05/07 05:52:01;;;;;;;9.25;8.45;;;;;;;11.33;73.45;95200.09;5125552;28;20295;-72
2023/05/07 05:54:31;;;;;;;9.18;8.38;;;;;;;11.40;73.15;95207.72;5092267;28;20203;-73
2023/05/07 05:57:03;;;;;;;8.95;8.20;;;;;;;11.48;73.50;95202.06;5090920;28;20208;-69
2023/05/07 05:59:35;;;;;;;9.40;8.57;;;;;;;11.54;72.96;95208.91;5092241;28;20203;-67
2023/05/07 06:02:05;;;;;;;8.98;8.18;;;;;;;11.59;73.24;95201.53;5092030;28;20189;-67
2023/05/07 06:04:35;;;;;;;9.13;8.32;;;;;;;11.63;72.51;95205.19;5092020;28;20187;-69
2023/05/07 06:07:06;;;;;;;9.13;8.25;;;;;;;11.68;71.59;95207.66;5091317;28;20196;-68
2023/05/07 06:09:39;;;;;;;9.15;8.02;;;;;;;11.69;71.76;95204.56;5091987;28;20180;-69
2023/05/07 06:12:08;;;;;;;9.52;8.73;;;;;;;11.74;71.07;95200.72;5091013;28;20204;-68
2023/05/07 06:14:35;;;;;;;8.80;8.10;;;;;;;11.77;70.52;95202.78;5091256;28;20236;-68
2023/05/07 06:17:11;;;;;;;9.20;8.40;;;;;;;11.81;70.39;95198.94;5090346;28;20197;-70
2023/05/07 06:19:41;;;;;;;8.95;8.13;;;;;;;11.87;70.44;95201.44;5091708;28;20215;-70
2023/05/07 06:22:09;;;;;;;8.63;7.85;;;;;;;11.90;69.98;95201.53;5091336;28;20641;-70
2023/05/07 06:24:46;;;;;;;8.52;7.82;;;;;;;11.97;69.92;95195.38;5087141;28;20246;-70
2023/05/07 06:27:13;;;;;;;9.30;8.50;;;;;;;12.03;69.85;95202.25;5091582;28;20249;-70
2023/05/07 06:29:42;;;;;;;9.68;8.77;;;;;;;12.10;69.85;95187.78;5124637;28;20189;-70
2023/05/07 06:32:15;;;;;;;9.20;8.50;;;;;;;12.17;69.84;95185.97;5090577;28;20193;-70
2023/05/07 06:34:45;;;;;;;9.13;8.32;;;;;;;12.24;69.22;95185.34;5082314;28;20200;-70
2023/05/07 06:37:14;;;;;;;8.90;8.20;;;;;;;12.31;69.35;95181.91;5076945;28;20231;-70
2023/05/07 06:39:50;;;;;;;9.07;8.27;;;;;;;12.39;69.91;95190.03;5077820;28;20189;-70
2023/05/07 06:42:20;;;;;;;9.70;8.80;;;;;;;12.46;69.19;95183.84;5077467;28;20204;-70
2023/05/07 06:44:50;;;;;;;9.77;8.93;;;;;;;12.49;69.03;95178.41;5077344;28;20292;-71
2023/05/07 06:47:21;;;;;;;9.10;8.23;;;;;;;12.53;68.79;95176.50;5077851;28;20254;-72
2023/05/07 06:49:51;;;;;;;9.05;8.15;;;;;;;12.57;68.59;95171.06;5077090;28;20211;-71
2023/05/07 06:52:57;;;;;;;9.10;8.20;;;;;;;12.65;68.16;95169.22;5077797;28;20240;-71
2023/05/07 06:56:01;;;;;;;10.48;9.32;;;;;;;12.71;67.94;95168.59;5077638;28;20197;-71
2023/05/07 06:59:11;;;;;;;9.90;8.90;;;;;;;12.79;67.78;95175.06;5077262;28;20189;-70
2023/05/07 07:02:15;;;;;;;11.57;10.45;;;;;;;12.82;68.13;95177.09;5076614;28;20196;-71
2023/05/07 07:05:22;;;;;;;10.68;9.68;;;;;;;12.88;68.15;95164.56;5076547;28;20193;-68
2023/05/07 07:08:27;;;;;;;8.77;8.10;;;;;;;12.95;67.77;95169.44;5077604;28;20192;-73
2023/05/07 07:11:36;;;;;;;10.02;9.20;;;;;;;12.98;67.45;95168.72;5075832;28;20500;-73
2023/05/07 07:14:44;;;;;;;11.32;9.15;;;;;;;13.05;67.34;95162.50;5077483;28;20276;-75
2023/05/07 07:17:49;;;;;;;13.38;12.20;;;;;;;13.10;67.56;95165.75;5077526;28;20231;-70
2023/05/07 07:20:58;;;;;;;10.50;9.50;;;;;;;13.17;67.56;95163.13;5077193;28;20259;-70
2023/05/07 07:24:08;;;;;;;9.82;8.93;;;;;;;13.24;67.36;95154.19;5076471;28;20320;-69
2023/05/07 07:27:13;;;;;;;11.45;9.52;;;;;;;13.31;67.02;95151.53;5076156;28;20201;-70
2023/05/07 07:30:18;;;;;;;11.02;9.93;;;;;;;13.43;67.50;95154.13;5076977;28;20189;-69
2023/05/07 07:33:23;;;;;;;12.70;11.43;;;;;;;13.51;66.83;95149.53;5075899;28;20201;-74
2023/05/07 07:36:32;;;;;;;10.70;9.63;;;;;;;13.59;66.40;95154.03;5077166;28;20193;-70
2023/05/07 07:39:38;;;;;;;11.95;10.75;;;;;;;13.80;67.13;95149.97;5075880;28;20601;-70
2023/05/07 07:42:47;;;;;;;12.43;11.18;;;;;;;14.01;66.81;95155.88;5075796;28;20254;-70
2023/05/07 07:45:53;;;;;;;12.15;11.05;;;;;;;14.15;65.15;95158.06;5075137;28;20299;-70
2023/05/07 07:49:02;;;;;;;11.15;10.15;;;;;;;14.20;65.47;95166.88;5075472;28;20236;-70
2023/05/07 07:51:38;;;;;;;12.13;11.00;;;;;;;14.32;66.41;95165.06;5076571;28;20182;-70
2023/05/07 07:54:06;;;;;;;11.18;10.18;;;;;;;14.44;66.11;95164.81;5075543;28;20181;-70
2023/05/07 07:56:34;;;;;;;9.85;9.05;;;;;;;14.48;65.44;95156.53;5075148;28;20201;-70
2023/05/07 07:59:05;;;;;;;9.48;8.48;;;;;;;14.54;64.52;95158.66;5075435;28;20262;-70
2023/05/07 08:01:33;;;;;;;11.02;8.55;;;;;;;14.59;64.49;95154.75;5076147;28;20266;-70
2023/05/07 08:04:02;;;;;;;9.50;8.50;;;;;;;14.65;64.55;95151.25;5074987;28;20225;-70
2023/05/07 08:06:36;;;;;;;9.73;8.85;;;;;;;14.79;64.64;95150.66;5076247;28;20201;-70
2023/05/07 08:09:04;;;;;;;10.25;9.25;;;;;;;14.92;64.46;95153.97;5075255;28;20292;-70
2023/05/07 08:11:32;;;;;;;8.73;8.02;;;;;;;15.14;65.40;95155.81;5076216;28;20189;-70
2023/05/07 08:14:00;;;;;;;8.88;8.07;;;;;;;15.31;63.57;95148.84;5075846;28;20189;-70
2023/05/07 08:16:27;;;;;;;8.90;7.82;;;;;;;15.41;61.89;95152.91;5075254;28;20533;-70
2023/05/07 08:18:56;;;;;;;10.00;9.00;;;;;;;15.50;61.86;95141.47;5108847;28;20201;-70
2023/05/07 08:21:26;;;;;;;9.88;9.07;;;;;;;15.57;62.30;95141.53;5075540;28;20192;-70
2023/05/07 08:24:00;;;;;;;10.90;9.82;;;;;;;15.64;60.58;95150.75;5074375;28;20272;-70
2023/05/07 08:26:27;;;;;;;10.10;9.20;;;;;;;15.66;60.68;95138.50;5108795;28;20197;-70
2023/05/07 08:28:55;;;;;;;9.52;8.52;;;;;;;15.70;60.51;95142.09;5074507;28;20208;-70
2023/05/07 08:31:23;;;;;;;9.32;8.32;;;;;;;15.77;60.21;95140.16;5108567;28;20213;-70
2023/05/07 08:33:51;;;;;;;8.70;7.90;;;;;;;15.87;59.75;95138.66;5075931;28;20173;-70
2023/05/07 08:36:21;;;;;;;9.63;7.68;;;;;;;15.99;59.88;95132.78;5075396;28;20197;-70
2023/05/07 08:38:49;;;;;;;7.65;6.95;;;;;;;16.11;59.47;95135.25;5075215;28;20214;-70
2023/05/07 08:41:24;;;;;;;7.88;7.18;;;;;;;16.31;59.85;95130.22;5075605;28;20196;-70
2023/05/07 08:43:52;;;;;;;9.50;8.55;;;;;;;16.69;59.38;95127.22;5075488;28;20209;-70
2023/05/07 08:46:24;;;;;;;9.52;8.52;;;;;;;16.84;58.45;95135.28;5075536;28;20217;-70
2023/05/07 08:48:53;;;;;;;9.82;8.85;;;;;;;17.02;58.63;95140.13;5108080;28;20201;-70
2023/05/07 08:51:22;;;;;;;10.05;9.02;;;;;;;17.23;58.68;95128.25;5074838;28;20274;-70
2023/05/07 08:53:51;;;;;;;9.23;8.43;;;;;;;17.28;57.35;95125.06;5075521;28;20246;-70
2023/05/07 08:56:25;;;;;;;9.85;8.93;;;;;;;17.37;56.07;95125.50;5075426;28;20196;-70
2023/05/07 08:58:56;;;;;;;9.50;8.50;;;;;;;17.43;56.65;95123.94;5075224;28;20487;-70
2023/05/07 09:01:27;;;;;;;9.88;8.88;;;;;;;17.49;56.80;95116.75;5073080;28;20213;-70
2023/05/07 09:03:56;;;;;;;9.93;8.93;;;;;;;17.53;53.73;95114.75;5074426;28;20554;-70
2023/05/07 09:06:23;;;;;;;9.88;7.80;;;;;;;17.61;55.99;95115.59;5106811;28;20212;-70
2023/05/07 09:08:51;;;;;;;8.80;7.88;;;;;;;17.91;58.48;95108.84;5075214;28;20193;-70
2023/05/07 09:11:27;;;;;;;8.68;7.97;;;;;;;18.09;56.14;95106.84;5074889;28;20224;-70
2023/05/07 09:13:57;;;;;;;8.32;7.53;;;;;;;18.29;53.97;95098.81;5075230;28;20214;-70
2023/05/07 09:16:28;;;;;;;9.02;8.23;;;;;;;18.35;52.59;95105.59;5075329;28;20280;-70
2023/05/07 09:18:56;;;;;;;8.90;7.95;;;;;;;18.44;53.86;95099.56;5107948;28;20543;-70
2023/05/07 09:21:27;;;;;;;8.38;7.65;;;;;;;18.49;53.89;95097.19;5108545;28;20185;-70
2023/05/07 09:23:56;;;;;;;8.85;7.95;;;;;;;18.49;51.63;95093.59;5075033;28;20232;-70
2023/05/07 09:26:29;;;;;;;8.57;7.60;;;;;;;18.50;52.81;95092.38;5075205;28;20250;-70
2023/05/07 09:28:56;;;;;;;8.27;7.55;;;;;;;18.55;51.92;95086.38;5073968;28;20216;-70
2023/05/07 09:31:25;;;;;;;8.35;7.65;;;;;;;18.57;51.39;95089.56;5108180;28;20196;-70
2023/05/07 09:33:58;;;;;;;7.40;6.80;;;;;;;18.67;50.05;95087.94;5075089;28;20188;-70
2023/05/07 09:36:31;;;;;;;6.82;6.22;;;;;;;18.60;49.72;95087.97;5074025;28;20200;-70
2023/05/07 09:39:01;;;;;;;7.03;6.50;;;;;;;18.52;48.12;95090.78;5073734;28;20232;-70
2023/05/07 09:41:31;;;;;;;6.40;5.85;;;;;;;18.49;48.39;95082.41;5074180;28;20200;-71
2023/05/07 09:44:00;;;;;;;6.60;6.00;;;;;;;18.60;50.60;95088.75;5075041;28;20583;-71
2023/05/07 09:46:33;;;;;;;6.20;5.70;;;;;;;18.69;48.08;95082.75;5074173;28;20224;-71
2023/05/07 09:49:06;;;;;;;5.60;5.07;;;;;;;18.65;48.75;95073.56;5074244;28;20235;-71
2023/05/07 09:51:49;;;;;;;5.75;5.25;;;;;;;18.77;49.30;95070.34;5074051;28;20188;-70
2023/05/07 09:54:17;;;;;;;7.53;5.70;;;;;;;18.84;49.73;95069.53;5074577;28;20284;-69
2023/05/07 09:56:49;;;;;;;6.28;5.78;;;;;;;19.03;48.46;95077.44;5074302;28;20200;-71
2023/05/07 09:59:21;;;;;;;6.57;5.97;;;;;;;19.08;49.22;95067.81;5074014;28;20208;-70
2023/05/07 10:01:50;;;;;;;6.05;5.40;;;;;;;19.20;47.74;95072.94;5075180;28;20212;-71
2023/05/07 10:04:19;;;;;;;5.65;5.20;;;;;;;19.29;47.47;95073.28;5074486;28;20560;-70
2023/05/07 10:06:48;;;;;;;5.20;4.80;;;;;;;19.30;45.75;95068.50;5074588;28;20223;-70
2023/05/07 10:09:18;;;;;;;5.32;4.88;;;;;;;19.30;44.92;95074.88;5076069;28;20211;-70
2023/05/07 10:11:49;;;;;;;4.78;4.47;;;;;;;19.28;45.44;95062.50;5078217;28;20242;-71
2023/05/07 10:14:18;;;;;;;5.53;4.72;;;;;;;19.25;44.68;95072.53;5077858;28;20204;-70
2023/05/07 10:16:52;;;;;;;5.07;4.63;;;;;;;19.29;45.02;95062.09;5076573;28;20548;-70
2023/05/07 10:19:20;;;;;;;5.22;4.82;;;;;;;19.40;46.19;95059.25;5077808;28;20197;-70
2023/05/07 10:21:55;;;;;;;6.60;4.78;;;;;;;19.39;44.02;95054.81;5077970;28;20196;-70
2023/05/07 10:24:29;;;;;;;5.20;4.72;;;;;;;19.40;43.62;95056.44;5077827;28;20212;-71
2023/05/07 10:27:02;;;;;;;5.03;4.60;;;;;;;19.39;42.01;95049.22;5077998;28;20287;-72
2023/05/07 10:29:36;;;;;;;4.80;4.40;;;;;;;19.54;42.56;95047.16;5079001;28;20181;-71
2023/05/07 10:32:16;;;;;;;4.40;4.00;;;;;;;19.69;40.66;95034.66;5079454;28;20189;-71
2023/05/07 10:34:48;;;;;;;4.15;3.83;;;;;;;19.85;39.14;95036.91;5074104;28;20228;-70
2023/05/07 10:37:20;;;;;;;4.70;4.30;;;;;;;19.99;39.92;95030.41;5078095;28;20219;-71
2023/05/07 10:39:48;;;;;;;4.20;3.90;;;;;;;20.13;42.26;95030.25;5112086;28;20197;-70
2023/05/07 10:42:22;;;;;;;4.07;3.78;;;;;;;20.29;40.46;95026.88;5079281;28;20182;-71
2023/05/07 10:44:52;;;;;;;4.88;4.40;;;;;;;20.54;40.62;95033.00;5077795;28;20216;-70
2023/05/07 10:47:20;;;;;;;4.70;4.35;;;;;;;20.65;41.12;95033.69;5078728;28;20528;-71
2023/05/07 10:50:23;;;;;;;4.55;4.15;;;;;;;20.78;40.97;95031.13;5078194;28;20201;-71
2023/05/07 10:53:28;;;;;;;4.80;4.40;;;;;;;20.86;39.81;95029.03;5078377;28;20279;-71
2023/05/07 10:56:33;;;;;;;5.25;4.75;;;;;;;20.89;38.40;95028.97;5077989;28;20239;-71
2023/05/07 10:59:45;;;;;;;4.53;4.13;;;;;;;20.89;38.30;95022.59;5077620;28;20242;-71
2023/05/07 11:02:20;;;;;;;4.90;4.45;;;;;;;20.72;37.27;95015.97;5077261;28;20196;-71
2023/05/07 11:05:23;;;;;;;4.70;4.30;;;;;;;20.65;39.81;95024.47;5076572;28;20298;-71
2023/05/07 11:08:02;;;;;;;4.28;3.88;;;;;;;20.74;37.87;95018.38;5077505;28;20201;-71
2023/05/07 11:10:56;;;;;;;4.82;4.40;;;;;;;20.85;39.83;95019.03;5077389;28;20228;-71
2023/05/07 11:13:51;;;;;;;4.07;3.78;;;;;;;21.02;37.63;95017.97;5077723;28;20264;-71
2023/05/07 11:16:27;;;;;;;4.38;3.97;;;;;;;21.24;38.45;95012.06;5076950;28;20520;-71
2023/05/07 11:18:57;;;;;;;4.93;4.20;;;;;;;21.43;39.11;95011.41;5076253;28;20257;-71
2023/05/07 11:21:41;;;;;;;5.03;4.50;;;;;;;21.63;39.95;95011.47;5076738;28;20193;-71
2023/05/07 11:24:11;;;;;;;5.13;4.63;;;;;;;21.86;39.90;95003.06;5075205;28;20232;-71
2023/05/07 11:26:48;;;;;;;4.80;4.43;;;;;;;21.94;34.94;95005.75;5076222;28;20540;-71
2023/05/07 11:29:18;;;;;;;4.97;4.57;;;;;;;21.93;36.99;95001.34;5076709;28;20204;-71
2023/05/07 11:32:00;;;;;;;4.95;4.55;;;;;;;22.03;37.37;94992.72;5076471;28;20251;-71
2023/05/07 11:34:31;;;;;;;4.78;4.38;;;;;;;22.09;37.99;94999.44;5109973;28;20597;-71
2023/05/07 11:37:01;;;;;;;5.10;4.70;;;;;;;22.11;37.80;95005.44;5075897;28;20233;-71
2023/05/07 11:39:31;;;;;;;4.50;4.10;;;;;;;22.11;37.13;94996.19;5076148;28;20541;-71
2023/05/07 11:42:03;;;;;;;4.82;4.43;;;;;;;22.09;35.91;94993.03;5075944;28;20204;-71
2023/05/07 11:44:46;;;;;;;4.50;4.20;;;;;;;22.14;34.00;94994.56;5075709;28;20270;-71
2023/05/07 11:47:23;;;;;;;5.28;4.65;;;;;;;22.10;36.43;94978.56;5075474;28;20285;-71
2023/05/07 11:49:53;;;;;;;5.05;4.65;;;;;;;22.18;36.61;94984.06;5076677;28;20180;-71
2023/05/07 11:52:22;;;;;;;5.18;4.57;;;;;;;22.22;34.60;94987.59;5075968;28;20197;-71
2023/05/07 11:54:58;;;;;;;5.25;4.85;;;;;;;22.24;35.37;94985.16;5076141;28;20582;-71
2023/05/07 11:57:29;;;;;;;4.25;3.95;;;;;;;22.25;35.66;94981.13;5075426;28;20209;-71
2023/05/07 11:59:59;;;;;;;5.13;4.72;;;;;;;22.32;36.49;94981.00;5075487;28;20228;-71
2023/05/07 12:02:34;;;;;;;4.88;4.32;;;;;;;22.40;35.93;94979.63;5076098;28;20269;-71
2023/05/07 12:05:10;;;;;;;4.80;4.30;;;;;;;22.46;36.36;94975.09;5075011;28;20240;-71
2023/05/07 12:07:40;;;;;;;4.40;4.00;;;;;;;22.43;33.66;94966.72;5109223;28;20213;-71
2023/05/07 12:10:16;;;;;;;4.28;3.88;;;;;;;22.42;35.54;94962.34;5075005;28;20193;-71
2023/05/07 12:12:47;;;;;;;4.78;4.38;;;;;;;22.53;36.34;94963.69;5075836;28;20196;-71
2023/05/07 12:15:16;;;;;;;4.50;4.10;;;;;;;22.63;34.34;94959.09;5076073;28;20196;-71
2023/05/07 12:17:50;;;;;;;4.75;4.35;;;;;;;22.68;35.63;94954.97;5075782;28;20204;-71
2023/05/07 12:20:18;;;;;;;3.78;3.47;;;;;;;22.81;33.10;94962.31;5075279;28;20224;-71
2023/05/07 12:22:46;;;;;;;4.22;3.67;;;;;;;22.84;33.71;94955.03;5072852;28;20237;-71
2023/05/07 12:25:20;;;;;;;3.40;3.20;;;;;;;22.83;32.65;94953.41;5075858;28;20201;-71
2023/05/07 12:27:53;;;;;;;3.83;3.60;;;;;;;22.81;34.87;94937.00;5075063;28;20250;-71
2023/05/07 12:30:23;;;;;;;4.15;3.85;;;;;;;22.82;32.89;94938.56;5075734;28;20184;-71
2023/05/07 12:32:59;;;;;;;4.05;3.70;;;;;;;22.86;34.64;94943.34;5075194;28;20185;-71
2023/05/07 12:35:31;;;;;;;3.70;3.40;;;;;;;22.94;35.02;94937.13;5075903;28;20276;-71
2023/05/07 12:38:04;;;;;;;3.58;3.28;;;;;;;22.99;33.67;94936.63;5074867;28;20197;-71
2023/05/07 12:40:47;;;;;;;3.90;3.60;;;;;;;23.09;31.94;94931.19;5074908;28;20246;-70
2023/05/07 12:43:21;;;;;;;3.90;3.60;;;;;;;23.09;33.09;94931.97;5074929;28;20570;-71
2023/05/07 12:45:53;;;;;;;4.00;3.70;;;;;;;23.10;32.96;94924.34;5074466;28;20220;-71
2023/05/07 12:48:27;;;;;;;4.35;3.97;;;;;;;23.17;34.49;94918.56;5108704;28;20193;-71
2023/05/07 12:50:56;;;;;;;5.53;4.18;;;;;;;23.15;34.67;94916.16;5075461;28;20182;-71
2023/05/07 12:53:31;;;;;;;4.80;4.18;;;;;;;23.22;34.65;94906.75;5074336;28;20201;-71
2023/05/07 12:56:02;;;;;;;4.10;3.80;;;;;;;23.33;33.66;94903.69;5108212;28;20201;-70
2023/05/07 12:58:34;;;;;;;4.00;3.65;;;;;;;23.40;33.94;94900.69;5075384;28;20185;-71
2023/05/07 13:01:07;;;;;;;3.83;3.50;;;;;;;23.46;33.06;94899.72;5075258;28;20290;-71
2023/05/07 13:03:57;;;;;;;4.57;3.60;;;;;;;23.35;33.59;94899.22;5074998;28;20617;-71
2023/05/07 13:06:27;;;;;;;4.13;3.83;;;;;;;23.37;32.87;94893.91;5074476;28;20551;-71
2023/05/07 13:08:57;;;;;;;4.13;3.35;;;;;;;23.37;32.48;94901.56;5074491;28;20185;-70
2023/05/07 13:11:27;;;;;;;4.30;3.90;;;;;;;23.30;32.56;94894.09;5074940;28;20283;-70
2023/05/07 13:13:55;;;;;;;4.03;3.70;;;;;;;23.35;33.65;94892.75;5075288;28;20189;-70
2023/05/07 13:16:24;;;;;;;4.30;3.90;;;;;;;23.43;34.85;94899.81;5074905;28;20219;-70
2023/05/07 13:18:55;;;;;;;4.43;4.03;;;;;;;23.45;34.37;94895.31;5075377;28;20219;-70
2023/05/07 13:21:26;;;;;;;3.97;3.67;;;;;;;23.43;35.18;94888.56;5075013;28;20209;-69
2023/05/07 13:23:57;;;;;;;4.00;3.70;;;;;;;23.48;34.16;94888.81;5108399;28;20332;-70
2023/05/07 13:26:27;;;;;;;4.22;3.92;;;;;;;23.46;32.51;94887.69;5074674;28;20223;-69
2023/05/07 13:28:58;;;;;;;4.00;3.70;;;;;;;23.29;34.32;94884.06;5075363;28;20227;-70
2023/05/07 13:31:27;;;;;;;4.70;4.22;;;;;;;23.24;34.32;94884.59;5075027;28;20628;-70
2023/05/07 13:33:57;;;;;;;4.60;4.30;;;;;;;23.17;33.45;94871.50;5074408;28;20534;-70
2023/05/07 13:36:26;;;;;;;4.03;3.72;;;;;;;23.16;34.28;94881.16;5075405;28;20185;-70
2023/05/07 13:38:59;;;;;;;3.83;3.53;;;;;;;23.23;33.70;94877.38;5073831;28;20205;-70
2023/05/07 13:41:27;;;;;;;4.38;3.97;;;;;;;23.26;34.25;94885.75;5074683;28;20197;-70
2023/05/07 13:43:59;;;;;;;4.00;3.70;;;;;;;23.37;33.87;94882.66;5074556;28;20197;-70
2023/05/07 13:46:29;;;;;;;4.65;4.32;;;;;;;23.29;33.18;94872.81;5078098;28;20414;-70
2023/05/07 13:49:00;;;;;;;4.50;4.10;;;;;;;23.35;34.38;94876.69;5078898;28;20280;-70
2023/05/07 13:51:28;;;;;;;5.22;4.72;;;;;;;23.48;33.82;94879.56;5079329;28;20193;-71
2023/05/07 13:53:58;;;;;;;4.30;4.00;;;;;;;23.59;35.02;94885.72;5078836;28;20193;-71
2023/05/07 13:56:28;;;;;;;5.07;4.18;;;;;;;23.51;34.37;94882.28;5079038;28;20192;-71
2023/05/07 13:58:56;;;;;;;4.30;3.90;;;;;;;23.64;33.77;94884.38;5077730;28;20208;-71
2023/05/07 14:01:27;;;;;;;3.90;3.60;;;;;;;23.66;31.84;94885.53;5078791;28;20182;-71
2023/05/07 14:03:53;;;;;;;4.35;3.95;;;;;;;23.59;33.39;94888.53;5078226;28;20224;-71
2023/05/07 14:06:25;;;;;;;4.18;3.83;;;;;;;23.66;32.76;94879.09;5078650;28;20217;-71
2023/05/07 14:08:52;;;;;;;4.18;3.88;;;;;;;23.77;32.61;94888.09;5078636;28;20181;-71
2023/05/07 14:11:20;;;;;;;4.32;3.92;;;;;;;23.74;30.66;94883.34;5078529;28;20227;-70
2023/05/07 14:13:51;;;;;;;3.70;3.40;;;;;;;23.61;31.54;94886.06;5078214;28;20205;-69
2023/05/07 14:16:22;;;;;;;4.88;4.15;;;;;;;23.53;32.21;94881.88;5112243;28;20225;-68
2023/05/07 14:18:53;;;;;;;5.45;4.30;;;;;;;23.53;32.74;94890.31;5077960;28;20197;-70
2023/05/07 14:21:25;;;;;;;4.65;4.25;;;;;;;23.64;32.89;94879.56;5079166;28;20197;-69
2023/05/07 14:23:54;;;;;;;4.90;3.65;;;;;;;23.72;32.48;94880.97;5077922;28;20241;-69
2023/05/07 14:26:29;;;;;;;4.10;3.80;;;;;;;23.72;34.01;94883.78;5077620;28;20224;-69
2023/05/07 14:28:58;;;;;;;5.15;4.18;;;;;;;23.79;33.18;94880.00;5078024;28;20189;-69
2023/05/07 14:31:28;;;;;;;4.70;4.30;;;;;;;23.83;34.18;94871.47;5077919;28;20212;-69
2023/05/07 14:33:58;;;;;;;4.03;3.72;;;;;;;23.77;32.18;94874.78;5078184;28;20177;-70
2023/05/07 14:36:31;;;;;;;3.67;3.38;;;;;;;23.77;33.65;94874.78;5110979;28;20190;-70
2023/05/07 14:39:00;;;;;;;4.60;4.00;;;;;;;23.87;33.83;94874.97;5077907;28;20193;-72
2023/05/07 14:41:29;;;;;;;4.88;4.38;;;;;;;23.95;33.91;94873.53;5111434;28;20204;-72
2023/05/07 14:43:59;;;;;;;4.15;3.78;;;;;;;23.68;33.03;94866.22;5078218;28;20193;-72
2023/05/07 14:46:26;;;;;;;4.10;3.80;;;;;;;23.52;33.67;94864.16;5077345;28;20258;-71
2023/05/07 14:48:58;;;;;;;4.50;4.10;;;;;;;23.55;33.64;94863.28;5111008;28;20201;-72
2023/05/07 14:51:28;;;;;;;4.70;3.72;;;;;;;23.49;33.72;94859.44;5077168;28;20200;-69
2023/05/07 14:53:59;;;;;;;4.20;3.88;;;;;;;23.45;34.14;94857.94;5077050;28;20197;-71
2023/05/07 14:56:31;;;;;;;3.80;3.42;;;;;;;23.40;33.98;94855.66;5076360;28;20220;-73
2023/05/07 14:58:59;;;;;;;4.40;4.03;;;;;;;23.40;33.69;94864.91;5076757;28;20219;-73
2023/05/07 15:01:26;;;;;;;3.95;3.72;;;;;;;23.38;32.87;94858.13;5076234;28;20209;-69
2023/05/07 15:03:57;;;;;;;4.18;3.78;;;;;;;23.36;33.29;94867.00;5077531;28;20192;-70
2023/05/07 15:06:31;;;;;;;4.75;3.70;;;;;;;23.33;32.76;94858.66;5077696;28;20290;-70
2023/05/07 15:09:02;;;;;;;4.13;3.72;;;;;;;23.28;33.66;94862.81;5075136;28;20204;-70
2023/05/07 15:11:30;;;;;;;3.90;3.60;;;;;;;23.21;33.74;94871.44;5076939;28;20213;-70
2023/05/07 15:14:00;;;;;;;4.40;3.95;;;;;;;23.12;33.09;94869.22;5077301;28;20203;-71
2023/05/07 15:16:28;;;;;;;3.50;3.30;;;;;;;22.98;32.50;94859.09;5110442;28;20193;-67
2023/05/07 15:18:57;;;;;;;3.60;3.30;;;;;;;22.84;32.85;94862.25;5077172;28;20186;-68
2023/05/07 15:21:28;;;;;;;4.20;3.80;;;;;;;22.79;33.32;94862.75;5109838;28;20212;-68
2023/05/07 15:23:57;;;;;;;4.28;3.88;;;;;;;22.75;34.26;94862.03;5075728;28;20236;-68
2023/05/07 15:26:28;;;;;;;4.00;3.63;;;;;;;22.71;34.37;94873.38;5076268;28;20659;-68
2023/05/07 15:29:03;;;;;;;3.90;3.60;;;;;;;22.65;33.74;94857.44;5077967;28;20197;-68
2023/05/07 15:31:32;;;;;;;4.30;4.00;;;;;;;22.61;33.99;94862.38;5077842;28;20201;-68
2023/05/07 15:34:03;;;;;;;4.22;3.75;;;;;;;22.56;34.67;94858.84;5077373;28;20265;-68
2023/05/07 15:36:35;;;;;;;4.20;3.83;;;;;;;22.51;35.02;94850.94;5076868;28;20197;-68
2023/05/07 15:39:05;;;;;;;3.78;3.47;;;;;;;22.50;35.00;94845.75;5077037;28;20208;-67
2023/05/07 15:41:40;;;;;;;6.65;6.05;;;;;;;22.52;34.31;94844.09;5077258;28;20204;-67
2023/05/07 15:44:11;;;;;;;5.15;3.80;;;;;;;22.46;34.03;94850.66;5078055;28;20200;-72
2023/05/07 15:46:41;;;;;;;3.88;3.58;;;;;;;22.42;33.84;94841.53;5077554;28;20216;-67
2023/05/07 15:49:16;;;;;;;4.63;4.22;;;;;;;22.39;32.69;94851.59;5077921;28;20299;-67
2023/05/07 15:51:50;;;;;;;4.70;3.55;;;;;;;22.35;32.20;94842.47;5078138;28;20189;-71
2023/05/07 15:54:23;;;;;;;3.80;3.50;;;;;;;22.33;32.38;94839.28;5078176;28;20239;-69
2023/05/07 15:56:49;;;;;;;4.03;3.70;;;;;;;22.29;32.67;94830.94;5078278;28;20182;-73
2023/05/07 15:59:17;;;;;;;3.78;3.50;;;;;;;22.25;32.73;94835.84;5077322;28;20198;-73
2023/05/07 16:01:48;;;;;;;4.10;3.80;;;;;;;22.22;33.42;94835.91;5078078;28;20228;-74
2023/05/07 16:04:16;;;;;;;3.80;3.50;;;;;;;22.18;33.36;94835.19;5077747;28;20197;-74
2023/05/07 16:06:48;;;;;;;4.13;3.70;;;;;;;22.13;33.51;94839.28;5076300;28;20205;-70
2023/05/07 16:09:19;;;;;;;3.85;3.60;;;;;;;22.08;33.28;94839.81;5076617;28;20204;-69
2023/05/07 16:11:48;;;;;;;3.97;3.60;;;;;;;22.03;33.66;94840.31;5110957;28;20263;-70
2023/05/07 16:14:19;;;;;;;4.78;4.10;;;;;;;21.98;33.52;94841.59;5077335;28;20181;-70
2023/05/07 16:16:50;;;;;;;6.10;3.85;;;;;;;21.93;33.39;94833.66;5077651;28;20223;-68
2023/05/07 16:19:19;;;;;;;4.45;3.95;;;;;;;21.87;33.54;94836.22;5076288;28;20239;-68
2023/05/07 16:21:47;;;;;;;3.97;3.40;;;;;;;21.80;33.17;94841.19;5075265;28;20208;-67
2023/05/07 16:24:21;;;;;;;4.00;3.70;;;;;;;21.73;34.10;94833.69;5076702;28;20246;-69
2023/05/07 16:26:51;;;;;;;4.30;4.00;;;;;;;21.65;33.88;94839.88;5075899;28;20615;-69
2023/05/07 16:29:22;;;;;;;4.28;3.97;;;;;;;21.57;34.33;94833.63;5076683;28;20228;-68
2023/05/07 16:31:52;;;;;;;4.95;4.47;;;;;;;21.52;34.86;94834.88;5109730;28;20582;-68
2023/05/07 16:34:21;;;;;;;4.78;4.30;;;;;;;21.49;35.23;94832.13;5076389;28;20290;-68
2023/05/07 16:36:55;;;;;;;4.97;4.18;;;;;;;21.42;36.39;94835.06;5076810;28;20192;-69
2023/05/07 16:42:12;;;;;;;5.03;4.63;;;;;;;21.32;38.34;94837.63;5075836;28;20204;-70
2023/05/07 16:44:46;;;;;;;6.03;4.63;;;;;;;21.26;39.22;94844.16;5077195;28;20196;-71
2023/05/07 16:47:14;;;;;;;6.03;4.55;;;;;;;21.14;38.73;94837.16;5076980;28;20209;-70
2023/05/07 16:49:41;;;;;;;5.75;4.55;;;;;;;21.02;39.22;94846.94;5076873;28;20189;-70
2023/05/07 16:52:11;;;;;;;4.90;4.50;;;;;;;20.90;39.78;94845.53;5076312;28;20197;-71
2023/05/07 16:54:41;;;;;;;4.80;4.00;;;;;;;20.77;40.03;94858.59;5077222;28;20193;-70
2023/05/07 16:57:08;;;;;;;4.47;3.85;;;;;;;20.60;40.37;94854.03;5109797;28;20225;-71
2023/05/07 16:59:38;;;;;;;4.50;4.10;;;;;;;20.53;40.08;94863.34;5075796;28;20193;-71
2023/05/07 17:02:07;;;;;;;4.65;3.78;;;;;;;20.48;40.92;94866.59;5076857;28;20193;-70
2023/05/07 17:04:36;;;;;;;7.32;4.20;;;;;;;20.43;41.28;94872.66;5076727;28;20193;-71
2023/05/07 17:07:05;;;;;;;5.07;4.60;;;;;;;20.37;41.42;94866.75;5075726;28;20527;-71
2023/05/07 17:09:39;;;;;;;5.65;5.00;;;;;;;20.33;41.26;94877.19;5075867;28;20227;-69
2023/05/07 17:12:08;;;;;;;5.45;4.45;;;;;;;20.25;41.55;94884.09;5075439;28;20201;-69
2023/05/07 17:14:36;;;;;;;5.82;4.05;;;;;;;20.17;41.68;94877.00;5075651;28;20188;-69
2023/05/07 17:17:04;;;;;;;4.53;3.92;;;;;;;20.08;42.36;94891.53;5075711;28;20625;-69
2023/05/07 17:19:31;;;;;;;5.40;4.13;;;;;;;20.00;42.46;94887.22;5076004;28;20531;-72
2023/05/07 17:21:59;;;;;;;4.88;4.30;;;;;;;19.94;42.16;94888.91;5109250;28;20209;-69
2023/05/07 17:24:28;;;;;;;7.13;4.60;;;;;;;19.90;45.02;94891.75;5075823;28;20185;-68
2023/05/07 17:27:01;;;;;;;9.73;4.78;;;;;;;19.92;43.98;94889.28;5075360;28;20565;-68
2023/05/07 17:29:33;;;;;;;4.70;4.13;;;;;;;19.92;44.02;94897.69;5076230;28;20243;-67